Time;durP1;ratioP1;P1;durP2;ratioP2;P2;SDS_P1;SDS_P2;PMS_P1;PMS_P2;Temp;Humidity;BMP_temperature;BMP_pressure;BME280_temperature;BME280_humidity;BME280_pressure;Samples;Min_cycle;Max_cycle;Signal;HPM_P1;HPM_P2
2023/04/26 00:02:05;;;;;;;2.17;1.10;;;;;;;10.49;100.00;96703.81;5113785;28;20475;-82
2023/04/26 00:04:32;;;;;;;1.02;1.02;;;;;;;10.45;100.00;96705.00;5130567;27;20056;-82
2023/04/26 00:06:59;;;;;;;1.23;0.77;;;;;;;10.42;100.00;96699.88;5130797;27;20031;-82
2023/04/26 00:09:25;;;;;;;0.90;0.85;;;;;;;10.35;100.00;96704.81;5128466;27;20026;-82
2023/04/26 00:11:53;;;;;;;2.10;1.02;;;;;;;10.26;100.00;96695.66;5142121;27;20038;-82
2023/04/26 00:14:19;;;;;;;4.43;1.40;;;;;;;10.18;100.00;96692.69;5129445;27;20030;-82
2023/04/26 00:16:45;;;;;;;0.77;0.50;;;;;;;10.13;100.00;96689.53;5129189;27;20144;-82
2023/04/26 00:19:11;;;;;;;2.13;1.15;;;;;;;10.14;100.00;96693.91;5130475;27;20086;-82
2023/04/26 00:21:37;;;;;;;0.65;0.30;;;;;;;10.10;100.00;96683.50;5117068;27;20011;-83
2023/04/26 00:24:04;;;;;;;1.55;1.02;;;;;;;10.16;100.00;96688.44;5118707;27;20025;-83
2023/04/26 00:26:30;;;;;;;0.38;0.38;;;;;;;10.15;100.00;96676.88;5137656;27;20087;-82
2023/04/26 00:28:55;;;;;;;0.63;0.63;;;;;;;10.11;100.00;96680.75;5133674;27;20097;-82
2023/04/26 00:31:21;;;;;;;0.50;0.45;;;;;;;10.01;100.00;96671.69;5137429;27;20061;-82
2023/04/26 00:33:46;;;;;;;0.28;0.28;;;;;;;9.97;100.00;96661.34;5137653;27;20117;-81
2023/04/26 00:36:12;;;;;;;0.50;0.50;;;;;;;9.88;100.00;96657.53;5146091;27;20026;-82
2023/04/26 00:38:38;;;;;;;0.03;0.03;;;;;;;9.77;100.00;96638.78;5124368;27;20068;-81
2023/04/26 00:41:04;;;;;;;0.93;0.30;;;;;;;9.71;100.00;96644.56;5120311;27;20035;-81
2023/04/26 00:43:29;;;;;;;2.30;1.02;;;;;;;9.66;100.00;96628.88;5132908;27;20027;-81
2023/04/26 00:45:55;;;;;;;0.00;0.00;;;;;;;9.63;100.00;96625.56;5128704;27;20027;-81
2023/04/26 00:48:21;;;;;;;0.43;0.43;;;;;;;9.59;100.00;96626.78;5116711;27;20176;-82
2023/04/26 00:50:47;;;;;;;0.43;0.43;;;;;;;9.59;100.00;96629.44;5125029;27;21350;-81
2023/04/26 00:53:13;;;;;;;0.08;0.08;;;;;;;9.56;100.00;96635.00;5142196;27;20474;-81
2023/04/26 00:55:42;;;;;;;0.20;0.20;;;;;;;9.39;100.00;96627.34;5134863;27;20031;-81
2023/04/26 00:58:08;;;;;;;2.40;0.77;;;;;;;9.41;100.00;96628.09;5141387;27;20031;-81
2023/04/26 01:00:33;;;;;;;0.75;0.73;;;;;;;9.45;100.00;96634.91;5128300;27;20493;-81
2023/04/26 01:02:59;;;;;;;0.55;0.52;;;;;;;9.44;100.00;96643.91;5145563;27;20033;-81
2023/04/26 01:05:24;;;;;;;0.73;0.60;;;;;;;9.48;100.00;96642.69;5132477;27;20376;-81
2023/04/26 01:07:50;;;;;;;0.98;0.50;;;;;;;9.43;100.00;96643.03;5125268;27;20088;-82
2023/04/26 01:10:16;;;;;;;2.55;1.05;;;;;;;9.49;100.00;96649.75;5116303;27;20110;-83
2023/04/26 01:12:42;;;;;;;0.93;0.93;;;;;;;9.47;100.00;96646.34;5120119;27;20049;-83
2023/04/26 01:15:09;;;;;;;0.25;0.20;;;;;;;9.51;100.00;96651.34;5121005;27;20022;-82
2023/04/26 01:17:36;;;;;;;1.42;0.85;;;;;;;9.46;100.00;96642.81;5136264;27;20501;-82
2023/04/26 01:20:02;;;;;;;0.25;0.22;;;;;;;9.43;100.00;96648.38;5116549;27;20034;-85
2023/04/26 01:22:31;;;;;;;0.95;0.82;;;;;;;9.39;100.00;96636.22;5128133;27;20023;-82
2023/04/26 01:24:57;;;;;;;0.68;0.68;;;;;;;9.40;100.00;96642.41;5141951;27;20038;-81
2023/04/26 01:27:22;;;;;;;1.05;0.80;;;;;;;9.41;100.00;96649.47;5122572;27;20050;-82
2023/04/26 01:29:48;;;;;;;0.45;0.45;;;;;;;9.47;100.00;96649.03;5131957;27;20470;-81
2023/04/26 01:32:13;;;;;;;0.30;0.30;;;;;;;9.44;100.00;96644.75;5127468;27;20028;-81
2023/04/26 01:34:39;;;;;;;3.15;2.38;;;;;;;9.46;100.00;96648.16;5136447;27;20023;-80
2023/04/26 01:37:06;;;;;;;2.53;1.67;;;;;;;9.47;100.00;96655.22;5119572;27;20031;-81
2023/04/26 01:39:33;;;;;;;0.68;0.65;;;;;;;9.43;100.00;96658.19;5136404;27;20497;-81
2023/04/26 01:41:58;;;;;;;0.73;0.63;;;;;;;9.39;100.00;96659.38;5116232;27;20191;-81
2023/04/26 01:44:24;;;;;;;2.15;0.95;;;;;;;9.30;100.00;96652.03;5128344;27;20075;-81
2023/04/26 01:46:49;;;;;;;1.58;0.80;;;;;;;9.35;100.00;96660.56;5115475;27;20024;-81
2023/04/26 01:49:15;;;;;;;1.23;1.13;;;;;;;9.25;100.00;96647.88;5115540;27;20050;-81
2023/04/26 01:51:40;;;;;;;1.15;1.05;;;;;;;9.22;100.00;96633.91;5128032;27;20057;-81
2023/04/26 01:54:06;;;;;;;1.65;0.95;;;;;;;9.19;100.00;96644.81;5131596;27;20026;-82
2023/04/26 01:56:32;;;;;;;0.57;0.57;;;;;;;9.11;100.00;96653.34;5127294;27;20480;-82
2023/04/26 01:59:00;;;;;;;1.08;0.82;;;;;;;9.06;100.00;96663.47;5148833;27;20073;-82
2023/04/26 02:01:25;;;;;;;1.23;1.13;;;;;;;9.08;100.00;96672.22;5121122;27;20031;-82
2023/04/26 02:03:51;;;;;;;0.82;0.75;;;;;;;9.07;100.00;96677.69;5120529;27;20511;-82
2023/04/26 02:06:17;;;;;;;2.05;0.70;;;;;;;9.04;100.00;96669.88;5135787;27;20481;-82
2023/04/26 02:08:42;;;;;;;0.65;0.65;;;;;;;8.96;100.00;96665.06;5148947;27;20027;-81
2023/04/26 02:11:08;;;;;;;1.95;0.85;;;;;;;8.90;100.00;96662.84;5131212;27;20027;-82
2023/04/26 02:13:37;;;;;;;0.88;0.88;;;;;;;8.80;100.00;96656.44;5150447;27;20043;-82
2023/04/26 02:16:39;;;;;;;1.63;1.10;;;;;;;8.90;100.00;96678.84;5133005;27;20034;-84
2023/04/26 02:19:12;;;;;;;0.20;0.20;;;;;;;8.69;100.00;96669.66;5115293;27;20058;-86
2023/04/26 02:22:06;;;;;;;1.10;0.95;;;;;;;8.83;100.00;96690.03;5115530;27;20023;-83
2023/04/26 02:28:00;;;;;;;0.80;0.70;;;;;;;8.79;100.00;96672.53;5134313;27;20096;-83
2023/04/26 02:30:27;;;;;;;0.40;0.40;;;;;;;8.95;100.00;96690.03;5114961;27;20517;-82
2023/04/26 02:32:56;;;;;;;1.10;1.08;;;;;;;9.01;100.00;96694.94;5120923;27;20027;-83
2023/04/26 02:35:22;;;;;;;1.13;0.93;;;;;;;9.02;100.00;96688.66;5146207;27;20105;-83
2023/04/26 02:37:47;;;;;;;2.40;0.93;;;;;;;9.02;100.00;96685.13;5131070;27;20026;-82
2023/04/26 02:40:14;;;;;;;1.35;1.13;;;;;;;9.06;100.00;96682.16;5114562;27;20031;-82
2023/04/26 02:42:39;;;;;;;2.92;1.10;;;;;;;8.97;100.00;96672.13;5134156;27;20029;-81
2023/04/26 02:45:06;;;;;;;0.63;0.60;;;;;;;8.96;100.00;96667.75;5146390;27;20118;-80
2023/04/26 02:47:32;;;;;;;0.20;0.20;;;;;;;9.02;100.00;96669.13;5117389;27;20031;-82
2023/04/26 02:49:58;;;;;;;0.93;0.60;;;;;;;9.05;100.00;96675.09;5128022;27;20033;-82
2023/04/26 02:52:41;;;;;;;1.70;1.02;;;;;;;9.03;100.00;96669.03;5120500;27;20114;-82
2023/04/26 02:55:10;;;;;;;0.20;0.20;;;;;;;9.08;100.00;96671.38;5123032;27;20039;-81
2023/04/26 02:57:35;;;;;;;0.65;0.65;;;;;;;9.01;100.00;96649.59;5114097;28;20099;-82
2023/04/26 03:00:01;;;;;;;0.73;0.68;;;;;;;8.98;100.00;96654.31;5122764;27;20027;-81
2023/04/26 03:02:26;;;;;;;0.82;0.70;;;;;;;9.08;100.00;96676.69;5128186;27;20430;-81
2023/04/26 03:04:52;;;;;;;1.08;0.98;;;;;;;9.09;100.00;96673.94;5138341;27;20054;-81
2023/04/26 03:07:18;;;;;;;7.63;1.02;;;;;;;9.09;100.00;96673.94;5144436;27;20098;-82
2023/04/26 03:09:43;;;;;;;1.10;1.10;;;;;;;9.03;100.00;96671.69;5134649;27;20031;-81
2023/04/26 03:12:09;;;;;;;2.58;1.45;;;;;;;8.98;100.00;96670.31;5152187;27;20039;-83
2023/04/26 03:14:35;;;;;;;2.80;1.00;;;;;;;8.96;100.00;96683.75;5133764;27;20117;-82
2023/04/26 03:17:01;;;;;;;2.80;1.58;;;;;;;8.93;100.00;96693.75;5135614;27;20070;-82
2023/04/26 03:19:29;;;;;;;3.17;1.85;;;;;;;8.78;100.00;96684.16;5134759;27;20027;-83
2023/04/26 03:21:55;;;;;;;0.90;0.90;;;;;;;8.63;100.00;96676.25;5132699;27;20022;-82
2023/04/26 03:24:21;;;;;;;1.52;0.82;;;;;;;8.49;100.00;96665.66;5131150;28;20034;-83
2023/04/26 03:26:58;;;;;;;1.65;0.88;;;;;;;8.47;100.00;96669.41;5114144;28;20038;-82
2023/04/26 03:29:24;;;;;;;0.82;0.82;;;;;;;8.35;100.00;96648.91;5113973;28;20061;-82
2023/04/26 03:31:50;;;;;;;2.45;0.93;;;;;;;8.21;100.00;96641.84;5126689;27;20463;-83
2023/04/26 03:34:15;;;;;;;1.10;0.93;;;;;;;8.22;100.00;96651.50;5134062;27;20039;-84
2023/04/26 03:36:41;;;;;;;0.28;0.28;;;;;;;8.25;100.00;96655.78;5134532;27;20011;-83
2023/04/26 03:39:06;;;;;;;1.17;0.70;;;;;;;8.19;100.00;96657.91;5134671;27;20026;-85
2023/04/26 03:41:34;;;;;;;0.43;0.43;;;;;;;8.27;100.00;96664.53;5134398;27;20027;-82
2023/04/26 03:43:59;;;;;;;2.60;1.70;;;;;;;8.36;100.00;96663.97;5118172;27;20117;-74
2023/04/26 03:46:25;;;;;;;0.40;0.40;;;;;;;8.40;100.00;96673.47;5137340;27;20105;-73
2023/04/26 03:48:50;;;;;;;2.88;1.50;;;;;;;8.46;100.00;96681.03;5122533;27;20019;-73
2023/04/26 03:51:16;;;;;;;3.25;2.10;;;;;;;8.63;100.00;96694.06;5152766;27;20075;-71
2023/04/26 03:53:41;;;;;;;5.53;1.42;;;;;;;8.70;100.00;96700.69;5137304;27;20022;-73
2023/04/26 03:56:07;;;;;;;1.45;1.25;;;;;;;8.84;100.00;96697.06;5128668;27;20477;-73
2023/04/26 03:58:33;;;;;;;1.38;1.30;;;;;;;8.94;100.00;96701.69;5154683;27;20075;-72
2023/04/26 04:00:58;;;;;;;1.58;1.48;;;;;;;9.06;100.00;96694.63;5137198;27;20078;-73
2023/04/26 04:03:24;;;;;;;1.05;1.05;;;;;;;9.11;100.00;96704.00;5137120;27;20065;-73
2023/04/26 04:05:49;;;;;;;1.33;1.23;;;;;;;9.19;100.00;96704.34;5127118;27;20034;-72
2023/04/26 04:08:15;;;;;;;4.43;2.15;;;;;;;9.27;100.00;96712.66;5152014;27;20109;-73
2023/04/26 04:10:41;;;;;;;1.02;0.93;;;;;;;9.37;100.00;96717.34;5136816;27;20027;-73
2023/04/26 04:13:07;;;;;;;1.10;1.00;;;;;;;9.43;100.00;96711.59;5148698;27;20035;-73
2023/04/26 04:15:33;;;;;;;2.55;1.33;;;;;;;9.44;100.00;96710.63;5152404;27;20027;-73
2023/04/26 04:17:58;;;;;;;1.73;1.20;;;;;;;9.53;100.00;96710.84;5154197;27;20404;-73
2023/04/26 04:20:24;;;;;;;2.35;1.73;;;;;;;9.65;100.00;96695.75;5154290;27;20482;-74
2023/04/26 04:22:50;;;;;;;1.70;1.58;;;;;;;9.82;100.00;96687.34;5154186;27;20103;-74
2023/04/26 04:28:33;;;;;;;2.92;1.50;;;;;;;9.77;100.00;96660.13;5126381;27;20084;-85
2023/04/26 04:30:59;;;;;;;2.33;1.90;;;;;;;9.87;100.00;96657.66;5130957;27;20030;-73
2023/04/26 04:33:27;;;;;;;7.70;2.13;;;;;;;9.86;100.00;96662.13;5155253;27;20026;-74
2023/04/26 04:35:53;;;;;;;4.03;1.42;;;;;;;9.44;100.00;96658.09;5153699;27;20406;-74
2023/04/26 04:38:19;;;;;;;2.28;1.65;;;;;;;9.49;100.00;96676.44;5120380;27;20031;-73
2023/04/26 04:40:48;;;;;;;3.22;1.05;;;;;;;9.60;100.00;96668.50;5118430;27;20087;-74
2023/04/26 04:43:14;;;;;;;3.60;1.88;;;;;;;9.70;100.00;96680.22;5136608;27;20030;-73
2023/04/26 04:45:39;;;;;;;2.30;1.45;;;;;;;9.74;100.00;96671.91;5124363;27;20099;-73
2023/04/26 04:48:05;;;;;;;2.03;1.40;;;;;;;9.94;100.00;96678.44;5117162;27;20541;-74
2023/04/26 04:50:31;;;;;;;1.63;1.52;;;;;;;10.11;100.00;96670.06;5115315;27;20506;-73
2023/04/26 04:52:56;;;;;;;2.70;1.27;;;;;;;10.46;100.00;96666.59;5123884;27;20488;-74
2023/04/26 04:55:22;;;;;;;1.52;1.42;;;;;;;10.68;100.00;96658.63;5150066;27;20037;-75
2023/04/26 04:57:47;;;;;;;0.90;0.80;;;;;;;10.82;100.00;96645.91;5153285;27;20023;-75
2023/04/26 05:00:14;;;;;;;0.90;0.90;;;;;;;10.80;100.00;96625.59;5152467;27;20026;-75
2023/04/26 05:02:40;;;;;;;1.63;1.38;;;;;;;10.93;100.00;96615.63;5142789;27;20045;-73
2023/04/26 05:05:06;;;;;;;0.95;0.65;;;;;;;10.95;100.00;96608.34;5135796;27;20031;-74
2023/04/26 05:07:32;;;;;;;1.13;0.90;;;;;;;11.01;100.00;96601.69;5135783;27;20503;-74
2023/04/26 05:09:57;;;;;;;0.77;0.77;;;;;;;11.07;100.00;96596.69;5153207;27;20114;-74
2023/04/26 05:12:23;;;;;;;4.05;1.45;;;;;;;11.04;100.00;96586.25;5153049;27;20043;-74
2023/04/26 05:14:48;;;;;;;0.40;0.40;;;;;;;11.02;100.00;96593.50;5135693;27;20027;-74
2023/04/26 05:17:14;;;;;;;1.95;0.98;;;;;;;11.01;100.00;96583.81;5153051;27;20030;-75
2023/04/26 05:19:39;;;;;;;0.75;0.75;;;;;;;10.91;100.00;96580.16;5152560;27;20083;-73
2023/04/26 05:22:05;;;;;;;1.17;0.82;;;;;;;10.38;100.00;96578.97;5152998;27;20029;-75
2023/04/26 05:24:30;;;;;;;0.82;0.82;;;;;;;10.54;100.00;96592.00;5153020;27;20026;-75
2023/04/26 05:26:57;;;;;;;2.08;1.88;;;;;;;10.66;100.00;96589.22;5149983;27;20042;-75
2023/04/26 05:29:23;;;;;;;4.55;1.48;;;;;;;10.75;100.00;96595.69;5142389;27;20015;-74
2023/04/26 05:31:49;;;;;;;2.38;1.35;;;;;;;10.89;100.00;96592.75;5131751;27;20401;-74
2023/04/26 05:34:14;;;;;;;2.50;1.05;;;;;;;11.01;100.00;96588.31;5140748;27;20023;-75
2023/04/26 05:36:40;;;;;;;3.83;2.88;;;;;;;11.27;100.00;96577.22;5131771;27;20461;-73
2023/04/26 05:39:06;;;;;;;0.82;0.68;;;;;;;11.46;100.00;96554.31;5135303;27;20029;-75
2023/04/26 05:41:32;;;;;;;4.47;1.40;;;;;;;11.49;100.00;96559.41;5135228;27;20392;-74
2023/04/26 05:43:57;;;;;;;3.30;1.95;;;;;;;11.68;100.00;96555.13;5142621;27;20022;-75
2023/04/26 05:46:41;;;;;;;1.40;1.30;;;;;;;11.92;100.00;96557.63;5130343;27;20018;-77
2023/04/26 05:49:07;;;;;;;0.65;0.63;;;;;;;11.83;100.00;96551.19;5152516;27;20014;-75
2023/04/26 05:51:32;;;;;;;5.68;1.50;;;;;;;11.80;100.00;96555.97;5134980;27;20504;-74
2023/04/26 05:53:58;;;;;;;3.63;1.30;;;;;;;11.91;100.00;96561.25;5152308;27;20050;-75
2023/04/26 05:56:24;;;;;;;1.40;0.95;;;;;;;11.81;100.00;96549.63;5152311;27;20026;-75
2023/04/26 05:58:50;;;;;;;1.70;1.60;;;;;;;12.10;100.00;96549.88;5151189;27;20442;-75
2023/04/26 06:01:16;;;;;;;1.85;1.45;;;;;;;12.02;100.00;96545.16;5145467;27;20087;-75
2023/04/26 06:03:43;;;;;;;1.10;1.00;;;;;;;12.21;100.00;96542.59;5132501;27;20031;-74
2023/04/26 06:06:08;;;;;;;1.73;1.63;;;;;;;12.45;100.00;96551.28;5150032;27;20030;-74
2023/04/26 06:08:34;;;;;;;1.92;1.52;;;;;;;12.69;100.00;96532.22;5151458;27;20046;-74
2023/04/26 06:10:59;;;;;;;3.85;1.63;;;;;;;12.77;100.00;96523.47;5139806;27;20019;-74
2023/04/26 06:13:25;;;;;;;2.00;1.67;;;;;;;12.94;100.00;96520.19;5146577;27;20049;-74
2023/04/26 06:15:52;;;;;;;23.02;8.05;;;;;;;13.39;100.00;96515.28;5134261;27;20075;-74
2023/04/26 06:18:18;;;;;;;5.85;2.65;;;;;;;13.66;100.00;96509.28;5134175;27;20061;-75
2023/04/26 06:20:45;;;;;;;13.48;7.43;;;;;;;13.72;100.00;96508.72;5152620;27;20094;-74
2023/04/26 06:23:11;;;;;;;2.50;2.30;;;;;;;13.17;100.00;96494.00;5151495;27;20048;-75
2023/04/26 06:25:36;;;;;;;3.00;1.67;;;;;;;13.34;100.00;96502.28;5153213;27;20455;-75
2023/04/26 06:28:02;;;;;;;8.65;3.00;;;;;;;13.27;100.00;96503.81;5134023;27;20393;-74
2023/04/26 06:30:28;;;;;;;2.38;1.52;;;;;;;14.18;100.00;96502.66;5151466;27;20098;-74
2023/04/26 06:32:53;;;;;;;3.97;2.78;;;;;;;14.60;100.00;96493.25;5151352;27;20097;-74
2023/04/26 06:35:19;;;;;;;2.88;2.15;;;;;;;14.74;100.00;96478.47;5134026;27;20110;-75
2023/04/26 06:37:44;;;;;;;23.40;1.77;;;;;;;14.63;100.00;96466.91;5151708;27;20030;-75
2023/04/26 06:40:12;;;;;;;5.93;3.50;;;;;;;14.79;100.00;96473.50;5151344;27;20434;-73
2023/04/26 06:42:38;;;;;;;6.65;2.97;;;;;;;14.88;100.00;96469.94;5134446;27;20054;-74
2023/04/26 06:45:04;;;;;;;1.48;0.68;;;;;;;14.91;100.00;96457.03;5151081;27;20058;-73
2023/04/26 06:47:29;;;;;;;1.83;1.10;;;;;;;15.51;100.00;96458.28;5134118;27;20171;-74
2023/04/26 06:49:55;;;;;;;2.65;1.42;;;;;;;15.56;100.00;96457.81;5133934;27;20510;-74
2023/04/26 06:52:21;;;;;;;0.47;0.47;;;;;;;15.11;100.00;96452.38;5142503;27;20112;-74
2023/04/26 06:54:46;;;;;;;1.50;1.10;;;;;;;15.67;100.00;96455.75;5151264;27;20026;-74
2023/04/26 06:57:12;;;;;;;1.35;1.25;;;;;;;16.64;100.00;96445.78;5150962;27;20018;-75
2023/04/26 06:59:37;;;;;;;2.05;1.30;;;;;;;18.13;100.00;96427.03;5151151;27;20027;-74
2023/04/26 07:02:03;;;;;;;1.75;1.17;;;;;;;19.58;98.73;96405.00;5151236;27;20490;-74
2023/04/26 07:04:28;;;;;;;11.77;5.82;;;;;;;20.72;82.24;96373.19;5134075;27;20034;-74
2023/04/26 07:06:54;;;;;;;2.22;1.67;;;;;;;21.12;78.90;96380.06;5133830;27;20078;-74
2023/04/26 07:09:20;;;;;;;1.17;1.08;;;;;;;20.54;81.13;96394.44;5137686;27;20497;-75
2023/04/26 07:11:46;;;;;;;3.17;1.90;;;;;;;19.71;83.03;96377.28;5134362;27;20542;-75
2023/04/26 07:14:11;;;;;;;12.50;4.65;;;;;;;19.19;88.47;96388.75;5147704;27;20031;-75
2023/04/26 07:16:37;;;;;;;2.83;2.10;;;;;;;19.83;82.69;96387.56;5133537;27;20441;-75
2023/04/26 07:19:02;;;;;;;3.45;2.25;;;;;;;19.51;85.23;96382.31;5153668;27;20021;-74
2023/04/26 07:21:28;;;;;;;3.20;1.33;;;;;;;18.83;91.70;96385.66;5155106;27;20026;-75
2023/04/26 07:23:56;;;;;;;1.10;0.75;;;;;;;18.46;94.08;96395.38;5155303;27;20014;-76
2023/04/26 07:26:23;;;;;;;1.30;0.98;;;;;;;18.17;99.70;96394.06;5155104;27;20468;-75
2023/04/26 07:28:52;;;;;;;1.23;0.82;;;;;;;17.90;100.00;96405.22;5155180;27;20081;-73
2023/04/26 07:31:18;;;;;;;1.50;1.35;;;;;;;17.51;100.00;96415.75;5155002;27;20457;-75
2023/04/26 07:33:44;;;;;;;1.20;0.90;;;;;;;18.63;99.36;96416.88;5120318;27;20389;-75
2023/04/26 07:36:10;;;;;;;0.90;0.70;;;;;;;21.29;81.77;96413.31;5150953;27;20033;-75
2023/04/26 07:38:35;;;;;;;1.17;0.93;;;;;;;22.87;64.42;96378.53;5121719;27;20015;-76
2023/04/26 07:41:01;;;;;;;1.50;1.38;;;;;;;24.03;59.41;96381.16;5153749;27;20033;-75
2023/04/26 07:43:27;;;;;;;1.15;1.02;;;;;;;25.17;51.27;96359.91;5153449;27;20106;-75
2023/04/26 07:45:52;;;;;;;1.95;1.25;;;;;;;25.10;44.81;96320.81;5152213;27;20034;-75
2023/04/26 07:48:18;;;;;;;0.38;0.38;;;;;;;24.78;43.15;96303.38;5154855;27;20074;-76
2023/04/26 07:50:44;;;;;;;0.60;0.55;;;;;;;24.93;44.80;96320.41;5154833;27;20026;-76
2023/04/26 07:53:09;;;;;;;0.98;0.40;;;;;;;26.13;42.89;96328.72;5154595;27;20488;-76
2023/04/26 07:55:36;;;;;;;1.20;0.68;;;;;;;26.73;41.33;96307.16;5150382;27;20386;-76
2023/04/26 07:58:02;;;;;;;0.88;0.82;;;;;;;26.08;40.91;96289.31;5154540;27;20023;-75
2023/04/26 08:00:28;;;;;;;0.38;0.35;;;;;;;27.09;39.17;96293.47;5137249;27;20027;-75
2023/04/26 08:02:54;;;;;;;1.70;1.08;;;;;;;27.64;38.70;96290.69;5154431;27;20026;-76
2023/04/26 08:05:19;;;;;;;0.75;0.75;;;;;;;27.94;37.86;96275.03;5155739;27;20023;-75
2023/04/26 08:07:45;;;;;;;0.25;0.25;;;;;;;28.20;36.31;96247.16;5155486;27;20390;-74
2023/04/26 08:10:10;;;;;;;1.58;0.93;;;;;;;28.24;34.35;96244.78;5136923;27;20043;-75
2023/04/26 08:12:37;;;;;;;0.40;0.40;;;;;;;28.69;34.42;96223.03;5136543;27;20049;-76
2023/04/26 08:15:03;;;;;;;0.13;0.13;;;;;;;26.51;35.35;96186.03;5154233;27;20030;-75
2023/04/26 08:17:30;;;;;;;0.00;0.00;;;;;;;27.10;35.94;96248.47;5154176;27;20114;-76
2023/04/26 08:19:56;;;;;;;0.25;0.25;;;;;;;27.59;35.24;96227.38;5154194;27;20018;-75
2023/04/26 08:22:23;;;;;;;0.47;0.45;;;;;;;27.49;35.51;96251.81;5154543;27;20014;-76
2023/04/26 08:24:49;;;;;;;0.22;0.22;;;;;;;28.45;35.16;96266.22;5155253;27;20079;-76
2023/04/26 08:27:15;;;;;;;0.40;0.25;;;;;;;27.76;33.95;96198.97;5136551;27;20454;-75
2023/04/26 08:29:41;;;;;;;0.47;0.30;;;;;;;28.30;34.80;96269.41;5135793;27;20028;-75
2023/04/26 08:32:07;;;;;;;0.47;0.47;;;;;;;29.50;32.82;96255.97;5153784;27;20051;-74
2023/04/26 08:34:32;;;;;;;0.10;0.10;;;;;;;28.95;31.66;96187.53;5153650;27;20439;-75
2023/04/26 08:36:58;;;;;;;0.30;0.30;;;;;;;27.28;33.66;96160.59;5153799;27;20026;-76
2023/04/26 08:39:23;;;;;;;1.33;0.55;;;;;;;27.09;35.50;96244.06;5153640;27;20027;-75
2023/04/26 08:41:53;;;;;;;8.98;1.45;;;;;;;26.28;36.42;96247.00;5135668;27;20026;-75
2023/04/26 08:44:25;;;;;;;1.00;0.70;;;;;;;24.96;35.76;96191.38;5136202;27;20837;-75
2023/04/26 08:47:02;;;;;;;0.25;0.25;;;;;;;26.44;34.23;96240.09;5137429;27;20029;-75
2023/04/26 08:49:41;;;;;;;1.40;0.57;;;;;;;27.97;31.95;96263.56;5149459;27;20062;-76
2023/04/26 08:52:11;;;;;;;0.22;0.15;;;;;;;27.60;31.08;96196.91;5153167;27;20027;-76
2023/04/26 08:54:37;;;;;;;0.63;0.63;;;;;;;26.02;31.32;96070.94;5152945;27;20019;-75
2023/04/26 08:57:03;;;;;;;1.55;0.52;;;;;;;24.93;33.27;96149.94;5144368;27;20027;-75
2023/04/26 08:59:30;;;;;;;0.47;0.32;;;;;;;25.81;33.39;96209.19;5148886;27;20397;-75
2023/04/26 09:01:56;;;;;;;0.25;0.25;;;;;;;27.13;32.64;96255.44;5135489;27;20010;-75
2023/04/26 09:04:22;;;;;;;0.20;0.20;;;;;;;28.12;31.90;96239.25;5152953;27;20026;-76
2023/04/26 09:06:49;;;;;;;0.17;0.17;;;;;;;28.81;30.76;96263.25;5146487;27;20114;-75
2023/04/26 09:09:18;;;;;;;1.27;0.60;;;;;;;28.95;29.52;96233.53;5133839;27;20125;-75
2023/04/26 09:11:58;;;;;;;0.32;0.32;;;;;;;27.86;28.97;96121.44;5152643;27;20038;-75
2023/04/26 09:14:24;;;;;;;1.20;1.02;;;;;;;26.69;30.27;96131.16;5133056;27;20577;-75
2023/04/26 09:16:51;;;;;;;0.38;0.30;;;;;;;26.82;30.67;96207.03;5144866;27;20023;-75
2023/04/26 09:19:17;;;;;;;0.17;0.17;;;;;;;27.98;29.81;96246.84;5150591;27;20018;-75
2023/04/26 09:21:45;;;;;;;0.85;0.40;;;;;;;26.61;30.69;96171.78;5152541;27;20176;-75
2023/04/26 09:24:11;;;;;;;0.08;0.05;;;;;;;28.99;29.80;96278.78;5130917;27;20401;-76
2023/04/26 09:26:36;;;;;;;0.30;0.30;;;;;;;29.89;28.52;96285.44;5114728;27;20025;-75
2023/04/26 09:29:13;;;;;;;0.10;0.10;;;;;;;31.08;26.26;96280.56;5131603;27;20019;-75
2023/04/26 09:31:44;;;;;;;0.00;0.00;;;;;;;31.03;26.54;96190.16;5148939;27;20030;-74
2023/04/26 09:34:11;;;;;;;0.20;0.20;;;;;;;32.15;25.62;96244.81;5135174;27;20392;-75
2023/04/26 09:36:57;;;;;;;0.95;0.35;;;;;;;33.23;25.02;96247.06;5145682;27;20088;-75
2023/04/26 09:39:33;;;;;;;0.50;0.50;;;;;;;31.56;26.71;96196.91;5130763;27;20028;-75
2023/04/26 09:41:59;;;;;;;0.57;0.43;;;;;;;32.69;25.86;96246.44;5142774;27;20007;-75
2023/04/26 09:44:24;;;;;;;3.10;1.30;;;;;;;28.72;27.82;96164.75;5152059;27;20037;-75
2023/04/26 09:47:00;;;;;;;2.10;1.10;;;;;;;27.40;29.99;96188.09;5151997;27;20023;-74
2023/04/26 09:49:27;;;;;;;1.23;1.13;;;;;;;28.19;28.83;96184.97;5152183;27;20026;-75
2023/04/26 09:52:05;;;;;;;9.15;1.80;;;;;;;28.87;28.46;96237.50;5134831;27;20022;-75
2023/04/26 09:54:50;;;;;;;4.00;1.50;;;;;;;31.24;25.78;96257.56;5139293;27;20030;-74
2023/04/26 09:57:17;;;;;;;2.05;1.40;;;;;;;29.93;27.88;96197.50;5152070;27;20466;-73
2023/04/26 09:59:47;;;;;;;2.30;1.10;;;;;;;29.13;28.34;96207.75;5134641;27;20071;-75
2023/04/26 10:02:15;;;;;;;1.40;1.30;;;;;;;26.56;30.42;96168.88;5150899;27;20496;-74
2023/04/26 10:04:46;;;;;;;11.77;1.92;;;;;;;25.65;32.06;96190.56;5151928;27;20470;-75
2023/04/26 10:07:13;;;;;;;1.45;1.33;;;;;;;26.59;29.85;96209.56;5123723;27;20139;-75
2023/04/26 10:09:40;;;;;;;6.22;1.27;;;;;;;27.41;29.14;96228.19;5132135;27;20027;-75
2023/04/26 10:12:06;;;;;;;1.40;1.30;;;;;;;29.03;27.87;96257.97;5149287;27;20490;-75
2023/04/26 10:14:33;;;;;;;2.03;1.30;;;;;;;29.94;27.39;96263.44;5145532;27;20101;-74
2023/04/26 10:16:59;;;;;;;5.32;1.30;;;;;;;28.77;26.81;96197.88;5133992;27;20461;-75
2023/04/26 10:19:25;;;;;;;3.40;1.38;;;;;;;30.64;25.20;96258.31;5152839;27;20037;-76
2023/04/26 10:21:52;;;;;;;2.85;1.20;;;;;;;31.14;24.79;96233.41;5142976;27;20042;-75
2023/04/26 10:24:18;;;;;;;1.58;1.42;;;;;;;30.65;25.86;96212.22;5124467;27;20038;-75
2023/04/26 10:26:51;;;;;;;4.22;1.25;;;;;;;31.40;24.38;96226.28;5144195;27;20023;-75
2023/04/26 10:29:20;;;;;;;3.17;1.20;;;;;;;27.66;27.23;96146.50;5142849;27;20034;-75
2023/04/26 10:32:01;;;;;;;2.33;1.10;;;;;;;28.12;27.97;96177.94;5134057;27;20026;-75
2023/04/26 10:34:30;;;;;;;1.27;1.13;;;;;;;29.70;26.42;96216.91;5152400;27;20492;-75
2023/04/26 10:37:12;;;;;;;4.43;1.30;;;;;;;28.46;27.58;96179.81;5133980;27;20022;-76
2023/04/26 10:39:45;;;;;;;29.20;18.20;;;;;;;29.65;26.79;96212.16;5127597;27;20475;-75
2023/04/26 10:42:24;;;;;;;2.65;1.83;;;;;;;29.82;26.65;96206.66;5112981;27;20027;-74
2023/04/26 10:44:51;;;;;;;3.33;1.70;;;;;;;29.65;26.79;96209.38;5146834;27;20097;-74
2023/04/26 10:47:25;;;;;;;1.77;1.40;;;;;;;29.70;26.98;96195.69;5150920;27;20520;-75
2023/04/26 10:49:50;;;;;;;5.85;1.85;;;;;;;30.23;27.24;96224.78;5151107;27;20508;-74
2023/04/26 10:52:21;;;;;;;4.75;1.90;;;;;;;31.84;25.16;96246.41;5150866;27;20031;-75
2023/04/26 10:54:48;;;;;;;2.42;2.10;;;;;;;33.51;23.51;96270.78;5150944;27;20405;-76
2023/04/26 10:57:14;;;;;;;2.47;1.70;;;;;;;32.57;23.58;96207.03;5133508;27;20218;-75
2023/04/26 11:00:09;;;;;;;1.90;1.40;;;;;;;31.48;24.76;96205.59;5133394;27;20088;-75
2023/04/26 11:03:03;;;;;;;3.03;1.02;;;;;;;33.70;22.67;96233.16;5150796;27;20022;-74
2023/04/26 11:05:41;;;;;;;3.80;1.25;;;;;;;33.28;23.06;96198.28;5149994;27;20143;-74
2023/04/26 11:08:08;;;;;;;3.60;1.60;;;;;;;31.82;23.72;96173.09;5150995;27;20477;-75
2023/04/26 11:10:36;;;;;;;1.55;1.45;;;;;;;32.57;24.01;96197.88;5131399;27;20057;-75
2023/04/26 11:13:03;;;;;;;1.42;1.30;;;;;;;33.65;22.95;96227.59;5131302;27;20512;-75
2023/04/26 11:15:33;;;;;;;1.60;1.20;;;;;;;34.49;21.89;96221.63;5129957;27;20119;-75
2023/04/26 11:18:03;;;;;;;1.83;1.35;;;;;;;34.81;21.47;96224.97;5133568;27;20037;-75
2023/04/26 11:20:32;;;;;;;3.03;1.30;;;;;;;34.82;21.46;96211.91;5131058;27;20047;-75
2023/04/26 11:22:58;;;;;;;7.55;2.40;;;;;;;33.29;23.25;96192.47;5130063;27;20072;-75
2023/04/26 11:25:30;;;;;;;1.77;1.50;;;;;;;32.96;22.82;96190.91;5145587;27;20443;-73
2023/04/26 11:28:00;;;;;;;1.95;1.38;;;;;;;32.37;23.49;96175.53;5134550;27;20499;-74
2023/04/26 11:30:27;;;;;;;2.92;1.50;;;;;;;31.60;23.79;96176.75;5131331;27;20046;-72
2023/04/26 11:32:53;;;;;;;4.40;1.40;;;;;;;30.26;25.33;96163.56;5133026;27;20128;-71
2023/04/26 11:35:21;;;;;;;5.50;1.70;;;;;;;29.50;25.86;96162.25;5151894;27;20026;-71
2023/04/26 11:37:48;;;;;;;2.63;1.63;;;;;;;29.53;26.53;96170.81;5133389;27;20033;-73
2023/04/26 11:40:15;;;;;;;4.03;2.00;;;;;;;29.40;27.63;96195.94;5131435;27;20079;-72